This is the latest recevied weather packets stored in our database for station/object WI0K. If no packets are shown the sender has not sent any weather packets the latest 10 day(s).
| Time | Temp. | Humidity | Pressure | Rain* | Wind** | Luminosity | Snow |
|---|---|---|---|---|---|---|---|
| 1778018657 | 4.44° C | 89% | 1012.2 hPa | 0 mm | - | 128 W/m² | - |
| 1778018356 | 4.44° C | 91% | 1012.2 hPa | 0 mm | - | 102 W/m² | - |
| 1778018056 | 4.44° C | 90% | 1012.3 hPa | 0 mm | - | 64 W/m² | - |
| 1778017755 | 4.44° C | 90% | 1012.3 hPa | 0 mm | - | 60 W/m² | - |
| 1778017454 | 4.44° C | 89% | 1012.4 hPa | 0 mm | - | 91 W/m² | - |
| 1778017154 | 4.44° C | 89% | 1012.4 hPa | 0.51 mm | - | 133 W/m² | - |
| 1778016853 | 4.44° C | 88% | 1012.4 hPa | 0.51 mm | - | 158 W/m² | - |
| 1778016553 | 4.44° C | 89% | 1012.4 hPa | 0.51 mm | - | 191 W/m² | - |
| 1778016252 | 3.89° C | 89% | 1012.5 hPa | 0.51 mm | - | 234 W/m² | - |
| 1778016191 | 3.89° C | 89% | 1012.4 hPa | 0.51 mm | - | 288 W/m² | - |
| 1778015951 | 3.89° C | 89% | 1012.4 hPa | 0.51 mm | - | 288 W/m² | - |
| 1778015901 | 3.89° C | 91% | 1012.5 hPa | 0.51 mm | - | 266 W/m² | - |
| 1778015651 | 3.89° C | 91% | 1012.5 hPa | 0.51 mm | - | 266 W/m² | - |
| 1778015595 | 4.44° C | 91% | 1012.4 hPa | 0.51 mm | - | 323 W/m² | - |
| 1778015350 | 4.44° C | 91% | 1012.4 hPa | 0.51 mm | - | 323 W/m² | - |
| 1778015290 | 3.89° C | 92% | 1012.6 hPa | 0.51 mm | - | 326 W/m² | - |
| 1778015049 | 3.89° C | 92% | 1012.6 hPa | 0.51 mm | - | 326 W/m² | - |
| 1778014999 | 3.89° C | 93% | 1012.8 hPa | 0.76 mm | - | 186 W/m² | - |
| 1778014749 | 3.89° C | 93% | 1012.8 hPa | 0.76 mm | - | 186 W/m² | - |
| 1778014448 | 3.89° C | 93% | 1012.9 hPa | 0.76 mm | - | 132 W/m² | - |
| 1778014398 | 3.89° C | 92% | 1013 hPa | 0.76 mm | - | 118 W/m² | - |
| 1778014148 | 3.89° C | 92% | 1013 hPa | 0.76 mm | - | 118 W/m² | - |
| 1778014098 | 3.89° C | 92% | 1013.2 hPa | 1.02 mm | - | 142 W/m² | - |
| 1778013847 | 3.89° C | 92% | 1013.2 hPa | 1.02 mm | - | 142 W/m² | - |
| 1778013546 | 3.89° C | 90% | 1013.3 hPa | 0.76 mm | - | 156 W/m² | - |
* Rain latest hour (hover to see other rain measurements)
** Current wind speed in m/s (hover to see current wind gust speed)